Time;durP1;ratioP1;P1;durP2;ratioP2;P2;SDS_P1;SDS_P2;PMS_P1;PMS_P2;Temp;Humidity;BMP_temperature;BMP_pressure;BME280_temperature;BME280_humidity;BME280_pressure;Samples;Min_cycle;Max_cycle;Signal;HPM_P1;HPM_P2
2024/01/12 00:01:05;;;;;;;71.13;12.38;;;;;;;;;;4977579;28;20037;-83
2024/01/12 00:03:30;;;;;;;55.63;11.75;;;;;;;;;;4997990;28;20026;-83
2024/01/12 00:05:56;;;;;;;69.82;14.57;;;;;;;;;;4991965;28;20066;-82
2024/01/12 00:08:22;;;;;;;36.28;12.35;;;;;;;;;;4988213;28;20081;-84
2024/01/12 00:10:47;;;;;;;45.20;11.77;;;;;;;;;;4974049;28;20035;-84
2024/01/12 00:13:12;;;;;;;25.85;9.65;;;;;;;;;;4988669;28;20034;-79
2024/01/12 00:15:37;;;;;;;34.70;10.85;;;;;;;;;;4992867;28;20039;-82
2024/01/12 00:18:03;;;;;;;33.33;10.32;;;;;;;;;;4980377;28;20096;-83
2024/01/12 00:20:28;;;;;;;90.55;12.40;;;;;;;;;;4957507;28;20065;-83
2024/01/12 00:22:56;;;;;;;47.88;10.63;;;;;;;;;;4971557;28;20112;-84
2024/01/12 00:25:22;;;;;;;25.08;10.20;;;;;;;;;;4991847;28;20050;-84
2024/01/12 00:27:47;;;;;;;165.32;13.60;;;;;;;;;;4988174;28;20404;-85
2024/01/12 00:30:13;;;;;;;55.30;10.35;;;;;;;;;;4993538;28;20046;-83
2024/01/12 00:32:39;;;;;;;62.78;12.43;;;;;;;;;;4981365;28;20038;-85
2024/01/12 00:35:04;;;;;;;43.20;10.75;;;;;;;;;;4996127;28;20125;-81
2024/01/12 00:37:30;;;;;;;30.40;9.52;;;;;;;;;;4966947;28;20057;-83
2024/01/12 00:39:55;;;;;;;38.75;12.80;;;;;;;;;;4994544;28;20415;-83
2024/01/12 00:42:20;;;;;;;47.35;10.43;;;;;;;;;;4987177;28;20038;-84
2024/01/12 00:44:46;;;;;;;25.60;9.73;;;;;;;;;;4997688;28;20042;-82
2024/01/12 00:47:11;;;;;;;46.72;9.18;;;;;;;;;;4989048;28;20038;-84
2024/01/12 00:49:36;;;;;;;18.42;8.52;;;;;;;;;;4996783;28;20031;-83
2024/01/12 00:52:01;;;;;;;28.10;9.63;;;;;;;;;;4989414;28;20043;-79
2024/01/12 00:54:27;;;;;;;40.70;9.60;;;;;;;;;;4995589;28;20038;-84
2024/01/12 00:56:53;;;;;;;31.23;9.55;;;;;;;;;;4968652;28;20443;-83
2024/01/12 00:59:19;;;;;;;38.08;7.25;;;;;;;;;;4984212;28;20450;-84
2024/01/12 01:01:44;;;;;;;25.10;10.07;;;;;;;;;;4985394;28;20097;-84
2024/01/12 01:04:10;;;;;;;25.52;10.38;;;;;;;;;;4993584;28;20090;-83
2024/01/12 01:06:35;;;;;;;34.85;9.48;;;;;;;;;;4992646;28;20038;-83
2024/01/12 01:09:00;;;;;;;29.38;8.95;;;;;;;;;;4983864;28;20385;-84
2024/01/12 01:11:26;;;;;;;23.88;10.05;;;;;;;;;;4977819;28;20042;-83
2024/01/12 01:13:51;;;;;;;17.25;7.35;;;;;;;;;;4988812;28;20648;-84
2024/01/12 01:16:17;;;;;;;23.20;8.93;;;;;;;;;;4989324;28;20058;-80
2024/01/12 01:18:42;;;;;;;36.47;9.00;;;;;;;;;;4986791;28;20050;-84
2024/01/12 01:21:08;;;;;;;30.40;10.88;;;;;;;;;;4963545;28;20039;-82
2024/01/12 01:23:33;;;;;;;27.67;8.85;;;;;;;;;;4974851;28;20117;-82
2024/01/12 01:25:59;;;;;;;19.70;7.03;;;;;;;;;;4988552;28;20046;-81
2024/01/12 01:28:24;;;;;;;19.13;8.13;;;;;;;;;;4991871;28;20035;-84
2024/01/12 01:30:49;;;;;;;27.75;8.73;;;;;;;;;;4991483;28;20034;-83
2024/01/12 01:33:15;;;;;;;20.50;9.48;;;;;;;;;;4969415;28;20035;-84
2024/01/12 01:35:40;;;;;;;15.02;7.63;;;;;;;;;;4975161;28;20599;-82
2024/01/12 01:38:05;;;;;;;21.40;7.90;;;;;;;;;;4954050;28;20145;-82
2024/01/12 01:40:31;;;;;;;22.00;7.82;;;;;;;;;;4997121;28;20038;-82
2024/01/12 01:42:56;;;;;;;25.15;7.10;;;;;;;;;;4992478;28;20063;-83
2024/01/12 01:45:22;;;;;;;28.05;9.52;;;;;;;;;;4991508;28;20031;-82
2024/01/12 01:47:47;;;;;;;22.13;7.80;;;;;;;;;;4988597;28;20031;-84
2024/01/12 01:50:14;;;;;;;23.63;8.27;;;;;;;;;;4992024;28;20071;-81
2024/01/12 01:52:40;;;;;;;19.77;7.38;;;;;;;;;;4990833;28;20038;-83
2024/01/12 01:55:07;;;;;;;24.75;9.57;;;;;;;;;;4982228;28;20156;-83
2024/01/12 01:57:34;;;;;;;23.23;8.80;;;;;;;;;;4973302;28;20038;-82
2024/01/12 01:59:59;;;;;;;23.42;8.55;;;;;;;;;;4993027;28;20447;-82
2024/01/12 02:02:24;;;;;;;21.17;8.52;;;;;;;;;;4970871;28;20038;-81
2024/01/12 02:04:51;;;;;;;44.47;9.77;;;;;;;;;;4979246;28;20460;-83
2024/01/12 02:07:17;;;;;;;16.02;7.20;;;;;;;;;;4970376;28;20035;-82
2024/01/12 02:09:42;;;;;;;45.25;9.18;;;;;;;;;;4969963;28;20085;-82
2024/01/12 02:12:08;;;;;;;117.57;10.80;;;;;;;;;;4988328;28;20132;-82
2024/01/12 02:14:33;;;;;;;10.07;5.47;;;;;;;;;;4993213;28;20096;-81
2024/01/12 02:16:59;;;;;;;19.42;6.63;;;;;;;;;;4986427;28;20027;-84
2024/01/12 02:19:24;;;;;;;17.98;7.30;;;;;;;;;;4985264;28;20035;-84
2024/01/12 02:21:49;;;;;;;17.60;7.28;;;;;;;;;;4983295;28;20150;-81
2024/01/12 02:24:15;;;;;;;16.40;7.50;;;;;;;;;;4982416;28;20122;-83
2024/01/12 02:26:40;;;;;;;21.25;7.60;;;;;;;;;;4976188;28;20380;-81
2024/01/12 02:29:06;;;;;;;22.83;7.93;;;;;;;;;;4985556;28;20035;-82
2024/01/12 02:31:31;;;;;;;19.83;8.63;;;;;;;;;;4983582;28;20035;-84
2024/01/12 02:33:56;;;;;;;16.35;7.55;;;;;;;;;;4988796;28;20046;-81
2024/01/12 02:36:26;;;;;;;16.27;8.32;;;;;;;;;;4983962;28;20118;-80
2024/01/12 02:38:51;;;;;;;26.20;9.30;;;;;;;;;;4989157;28;20054;-81
2024/01/12 02:41:17;;;;;;;18.88;7.85;;;;;;;;;;4986725;28;20031;-83
2024/01/12 02:43:42;;;;;;;25.27;9.38;;;;;;;;;;4989845;28;20027;-81
2024/01/12 02:46:08;;;;;;;21.05;8.57;;;;;;;;;;4977384;28;20037;-82
2024/01/12 02:48:33;;;;;;;17.33;7.10;;;;;;;;;;4993698;28;20027;-84
2024/01/12 02:50:58;;;;;;;19.65;8.30;;;;;;;;;;4980300;28;20074;-82
2024/01/12 02:53:24;;;;;;;16.55;7.68;;;;;;;;;;4982476;28;20019;-84
2024/01/12 02:55:49;;;;;;;21.63;7.03;;;;;;;;;;4972492;28;20042;-83
2024/01/12 02:58:14;;;;;;;13.63;6.22;;;;;;;;;;4994779;28;20191;-84
2024/01/12 03:00:39;;;;;;;25.98;8.18;;;;;;;;;;4995510;28;20046;-83
2024/01/12 03:03:05;;;;;;;14.80;6.25;;;;;;;;;;4970231;28;20034;-82
2024/01/12 03:05:31;;;;;;;21.35;8.20;;;;;;;;;;4995201;28;20042;-84
2024/01/12 03:07:56;;;;;;;22.58;8.23;;;;;;;;;;4985678;28;20093;-82
2024/01/12 03:10:22;;;;;;;16.48;6.53;;;;;;;;;;4997306;28;20030;-83
2024/01/12 03:12:47;;;;;;;16.73;6.80;;;;;;;;;;4996941;28;20034;-84
2024/01/12 03:15:12;;;;;;;16.60;7.03;;;;;;;;;;4989103;28;20472;-83
2024/01/12 03:17:38;;;;;;;16.30;7.70;;;;;;;;;;4995847;28;20090;-84
2024/01/12 03:20:05;;;;;;;18.58;8.02;;;;;;;;;;4995184;28;20641;-84
2024/01/12 03:22:30;;;;;;;16.45;7.72;;;;;;;;;;4994030;28;20067;-83
2024/01/12 03:24:55;;;;;;;15.63;6.68;;;;;;;;;;4970856;28;20496;-83
2024/01/12 03:27:20;;;;;;;16.25;7.15;;;;;;;;;;4995267;28;20041;-84
2024/01/12 03:29:46;;;;;;;18.48;8.10;;;;;;;;;;4998294;28;20046;-81
2024/01/12 03:32:11;;;;;;;22.98;7.95;;;;;;;;;;4989795;28;20031;-84
2024/01/12 03:34:36;;;;;;;22.33;9.27;;;;;;;;;;4990244;28;20522;-83
2024/01/12 03:37:01;;;;;;;25.15;8.85;;;;;;;;;;4995990;28;20030;-83
2024/01/12 03:39:27;;;;;;;12.40;6.03;;;;;;;;;;4988863;28;20058;-84
2024/01/12 03:41:52;;;;;;;16.67;7.70;;;;;;;;;;4989063;28;20792;-84
2024/01/12 03:44:17;;;;;;;20.60;7.65;;;;;;;;;;4994630;28;20130;-84
2024/01/12 03:46:42;;;;;;;21.88;7.13;;;;;;;;;;4994669;28;20034;-83
2024/01/12 03:49:08;;;;;;;15.63;5.75;;;;;;;;;;4977966;28;20466;-82
2024/01/12 03:51:33;;;;;;;15.27;7.40;;;;;;;;;;4989666;28;20041;-83
2024/01/12 03:53:58;;;;;;;11.02;4.18;;;;;;;;;;4974177;28;20069;-84
2024/01/12 03:56:23;;;;;;;10.70;4.45;;;;;;;;;;4993010;28;20388;-82
2024/01/12 03:58:49;;;;;;;18.38;7.55;;;;;;;;;;4996655;28;20026;-84
2024/01/12 04:01:14;;;;;;;12.80;6.65;;;;;;;;;;4993032;28;20217;-84
2024/01/12 04:03:40;;;;;;;22.70;7.70;;;;;;;;;;4962912;28;20061;-83
2024/01/12 04:06:09;;;;;;;12.02;5.70;;;;;;;;;;4988025;28;20522;-84
2024/01/12 04:08:34;;;;;;;14.07;5.97;;;;;;;;;;4985075;28;20030;-84
2024/01/12 04:11:00;;;;;;;15.43;6.32;;;;;;;;;;4951556;28;20030;-82
2024/01/12 04:13:25;;;;;;;12.35;5.60;;;;;;;;;;4988015;28;20030;-84
2024/01/12 04:15:51;;;;;;;9.43;6.63;;;;;;;;;;4978201;28;20030;-84
2024/01/12 04:18:16;;;;;;;13.20;5.38;;;;;;;;;;4995586;28;20069;-84
2024/01/12 04:20:42;;;;;;;21.33;7.68;;;;;;;;;;4985615;28;20085;-84
2024/01/12 04:23:07;;;;;;;15.52;7.32;;;;;;;;;;4985935;28;20456;-83
2024/01/12 04:25:32;;;;;;;11.30;5.10;;;;;;;;;;4995772;28;20054;-82
2024/01/12 04:27:57;;;;;;;13.98;5.97;;;;;;;;;;4976888;28;20503;-83
2024/01/12 04:30:23;;;;;;;15.45;5.72;;;;;;;;;;4995287;28;21791;-84
2024/01/12 04:32:48;;;;;;;15.85;6.85;;;;;;;;;;4994860;28;20045;-84
2024/01/12 04:35:13;;;;;;;21.23;7.80;;;;;;;;;;4959998;28;21200;-84
2024/01/12 04:37:39;;;;;;;9.80;5.63;;;;;;;;;;4990728;28;20094;-83
2024/01/12 04:40:04;;;;;;;19.13;7.38;;;;;;;;;;4995641;28;20042;-84
2024/01/12 04:42:29;;;;;;;13.73;5.43;;;;;;;;;;4995153;28;20107;-84
2024/01/12 04:44:55;;;;;;;15.57;8.27;;;;;;;;;;4996932;28;20046;-82
2024/01/12 04:47:20;;;;;;;12.55;5.03;;;;;;;;;;4988249;28;20050;-84
2024/01/12 04:49:45;;;;;;;6.78;4.10;;;;;;;;;;4972761;28;20494;-84
2024/01/12 04:52:11;;;;;;;15.32;7.00;;;;;;;;;;4983809;28;20046;-85
2024/01/12 04:54:36;;;;;;;14.60;6.45;;;;;;;;;;4989228;28;20106;-83
2024/01/12 04:57:01;;;;;;;15.02;6.25;;;;;;;;;;4963119;28;20049;-84
2024/01/12 04:59:26;;;;;;;18.23;6.95;;;;;;;;;;4977568;28;20030;-80
2024/01/12 05:01:52;;;;;;;11.70;5.85;;;;;;;;;;5000694;28;20037;-81
2024/01/12 05:04:17;;;;;;;6.32;3.78;;;;;;;;;;5000310;28;20428;-83
2024/01/12 05:06:43;;;;;;;11.32;6.18;;;;;;;;;;4966404;28;20027;-84
2024/01/12 05:09:08;;;;;;;15.05;4.80;;;;;;;;;;4986312;28;20093;-82
2024/01/12 05:11:33;;;;;;;20.10;6.30;;;;;;;;;;4964105;28;20547;-83
2024/01/12 05:13:59;;;;;;;15.35;6.20;;;;;;;;;;4986017;28;20510;-83
2024/01/12 05:16:25;;;;;;;11.73;5.85;;;;;;;;;;4992945;28;20113;-82
2024/01/12 05:18:50;;;;;;;19.40;6.05;;;;;;;;;;4993775;28;20041;-84
2024/01/12 05:21:15;;;;;;;10.13;5.85;;;;;;;;;;4992111;28;20040;-84
2024/01/12 05:23:44;;;;;;;16.50;6.50;;;;;;;;;;4983999;28;20034;-84
2024/01/12 05:26:12;;;;;;;8.50;4.82;;;;;;;;;;4973653;28;21059;-81
2024/01/12 05:28:37;;;;;;;15.68;5.13;;;;;;;;;;4995876;28;20038;-83
2024/01/12 05:31:02;;;;;;;14.27;5.97;;;;;;;;;;4994422;28;20422;-84
2024/01/12 05:33:28;;;;;;;15.90;6.32;;;;;;;;;;4995232;28;20030;-83
2024/01/12 05:35:53;;;;;;;12.65;6.63;;;;;;;;;;4997223;28;20038;-84
2024/01/12 05:38:18;;;;;;;14.00;5.13;;;;;;;;;;4974335;28;20705;-83
2024/01/12 05:40:43;;;;;;;23.65;7.25;;;;;;;;;;4973244;28;20046;-84
2024/01/12 05:43:09;;;;;;;9.77;5.03;;;;;;;;;;4988246;28;22636;-80
2024/01/12 05:45:34;;;;;;;18.48;6.20;;;;;;;;;;4983463;28;21927;-83
2024/01/12 05:48:00;;;;;;;12.82;5.78;;;;;;;;;;4991140;28;20045;-84
2024/01/12 05:50:25;;;;;;;9.15;5.32;;;;;;;;;;4972172;28;20057;-84
2024/01/12 05:52:50;;;;;;;11.60;4.72;;;;;;;;;;4977153;28;20107;-83
2024/01/12 05:55:16;;;;;;;9.65;4.95;;;;;;;;;;4993613;28;21733;-84
2024/01/12 05:57:41;;;;;;;17.58;7.85;;;;;;;;;;4995450;28;20034;-82
2024/01/12 06:00:08;;;;;;;14.02;6.13;;;;;;;;;;4994755;28;20035;-83
2024/01/12 06:02:33;;;;;;;16.55;6.78;;;;;;;;;;4977625;28;20127;-83
2024/01/12 06:04:58;;;;;;;18.23;7.13;;;;;;;;;;4987753;28;20519;-82
2024/01/12 06:07:23;;;;;;;12.32;5.80;;;;;;;;;;4976575;28;20031;-85
2024/01/12 06:09:49;;;;;;;12.70;6.10;;;;;;;;;;4965809;28;20023;-84
2024/01/12 06:12:14;;;;;;;12.30;5.35;;;;;;;;;;4983468;28;20042;-83
2024/01/12 06:14:39;;;;;;;13.27;5.00;;;;;;;;;;4983459;28;20053;-84
2024/01/12 06:17:04;;;;;;;18.70;5.57;;;;;;;;;;4974731;28;21972;-84
2024/01/12 06:19:30;;;;;;;19.23;6.50;;;;;;;;;;4987035;28;20113;-83
2024/01/12 06:21:55;;;;;;;14.32;5.95;;;;;;;;;;4994290;28;21629;-81
2024/01/12 06:24:20;;;;;;;10.77;5.90;;;;;;;;;;4995170;28;20093;-83
2024/01/12 06:26:45;;;;;;;14.07;6.82;;;;;;;;;;4985037;28;20030;-83
2024/01/12 06:29:11;;;;;;;11.57;6.53;;;;;;;;;;4998090;28;20049;-84
2024/01/12 06:31:36;;;;;;;9.55;4.93;;;;;;;;;;4996188;28;20940;-84
2024/01/12 06:34:01;;;;;;;16.75;7.13;;;;;;;;;;4977813;28;20118;-85
2024/01/12 06:36:27;;;;;;;18.20;6.80;;;;;;;;;;4994192;28;20295;-84
2024/01/12 06:38:52;;;;;;;12.95;5.88;;;;;;;;;;4987474;28;20476;-81
2024/01/12 06:41:17;;;;;;;12.27;6.32;;;;;;;;;;4995258;28;20043;-83
2024/01/12 06:43:43;;;;;;;18.08;5.80;;;;;;;;;;4998363;28;20384;-83
2024/01/12 06:46:08;;;;;;;11.50;6.05;;;;;;;;;;4997537;28;20038;-82
2024/01/12 06:48:34;;;;;;;20.05;7.53;;;;;;;;;;4990335;28;20031;-84
2024/01/12 06:51:00;;;;;;;159.15;14.27;;;;;;;;;;4986999;28;20030;-85
2024/01/12 06:53:25;;;;;;;477.88;26.45;;;;;;;;;;4979539;28;20090;-83
2024/01/12 06:55:50;;;;;;;230.68;16.92;;;;;;;;;;4973623;28;20157;-84
2024/01/12 06:58:15;;;;;;;21.67;9.57;;;;;;;;;;4973666;28;20053;-84
2024/01/12 07:00:41;;;;;;;14.65;6.97;;;;;;;;;;4996559;28;20522;-83
2024/01/12 07:03:06;;;;;;;17.95;7.95;;;;;;;;;;4978378;28;20046;-85
2024/01/12 07:05:32;;;;;;;12.73;6.68;;;;;;;;;;4995967;28;20049;-83
2024/01/12 07:07:57;;;;;;;14.98;7.03;;;;;;;;;;4981058;28;20661;-82
2024/01/12 07:10:22;;;;;;;14.18;7.07;;;;;;;;;;4986444;28;21657;-83
2024/01/12 07:12:51;;;;;;;15.73;6.72;;;;;;;;;;4985082;28;20903;-83
2024/01/12 07:15:17;;;;;;;27.38;9.75;;;;;;;;;;4969123;28;20363;-81
2024/01/12 07:17:43;;;;;;;15.02;7.22;;;;;;;;;;4993788;28;20030;-83
2024/01/12 07:20:10;;;;;;;26.08;8.35;;;;;;;;;;4967952;28;20031;-83
2024/01/12 07:22:35;;;;;;;26.55;9.27;;;;;;;;;;4983850;28;20038;-80
2024/01/12 07:25:01;;;;;;;19.58;8.27;;;;;;;;;;4971184;28;20061;-85
2024/01/12 07:27:26;;;;;;;34.78;9.02;;;;;;;;;;4978909;28;20526;-83
2024/01/12 07:29:51;;;;;;;186.88;13.52;;;;;;;;;;4981065;28;20039;-84
2024/01/12 07:32:16;;;;;;;36.97;7.82;;;;;;;;;;4978323;28;20341;-81
2024/01/12 07:34:42;;;;;;;17.75;8.77;;;;;;;;;;4965148;28;20035;-84
2024/01/12 07:37:07;;;;;;;63.80;9.38;;;;;;;;;;4976721;28;20042;-80
2024/01/12 07:39:33;;;;;;;18.60;7.28;;;;;;;;;;4979018;28;20054;-82
2024/01/12 07:41:58;;;;;;;14.82;7.38;;;;;;;;;;4981537;28;20046;-83
2024/01/12 07:44:24;;;;;;;18.08;8.75;;;;;;;;;;4986286;28;20459;-83
2024/01/12 07:46:49;;;;;;;21.67;8.88;;;;;;;;;;4987248;28;20039;-84
2024/01/12 07:49:15;;;;;;;16.85;9.45;;;;;;;;;;4990601;28;20446;-82
2024/01/12 07:51:40;;;;;;;25.33;9.73;;;;;;;;;;4986764;28;20431;-83
2024/01/12 07:54:06;;;;;;;18.52;8.27;;;;;;;;;;4970776;28;20054;-85
2024/01/12 07:56:31;;;;;;;17.23;8.38;;;;;;;;;;4981880;28;20460;-85
2024/01/12 07:58:57;;;;;;;15.88;8.02;;;;;;;;;;4988607;28;20499;-84
2024/01/12 08:01:23;;;;;;;36.22;10.88;;;;;;;;;;4985648;28;20065;-84
2024/01/12 08:03:48;;;;;;;21.05;10.00;;;;;;;;;;4981223;28;20384;-82
2024/01/12 08:06:14;;;;;;;24.77;10.23;;;;;;;;;;4974569;28;20049;-85
2024/01/12 08:08:40;;;;;;;22.95;8.95;;;;;;;;;;4987895;28;20883;-83
2024/01/12 08:11:05;;;;;;;22.33;9.57;;;;;;;;;;4966194;28;20058;-82
2024/01/12 08:13:31;;;;;;;18.75;8.25;;;;;;;;;;4980978;28;20403;-83
2024/01/12 08:15:57;;;;;;;23.85;9.02;;;;;;;;;;4981513;28;20086;-84
2024/01/12 08:18:22;;;;;;;16.48;8.57;;;;;;;;;;4976974;28;20051;-84
2024/01/12 08:20:48;;;;;;;22.80;9.32;;;;;;;;;;4968546;28;20558;-82
2024/01/12 08:23:15;;;;;;;20.38;8.20;;;;;;;;;;4981905;28;20511;-83
2024/01/12 08:25:41;;;;;;;21.98;8.35;;;;;;;;;;4983718;28;20038;-79
2024/01/12 08:28:06;;;;;;;34.30;9.60;;;;;;;;;;4978542;28;20054;-84
2024/01/12 08:30:33;;;;;;;20.58;9.35;;;;;;;;;;4982423;28;20111;-84
2024/01/12 08:32:59;;;;;;;15.38;8.00;;;;;;;;;;4977756;28;20065;-81
2024/01/12 08:35:25;;;;;;;22.50;9.25;;;;;;;;;;4967005;28;20106;-82
2024/01/12 08:37:51;;;;;;;12.32;7.45;;;;;;;;;;4962486;28;20385;-84
2024/01/12 08:40:16;;;;;;;25.02;8.23;;;;;;;;;;4965892;28;20061;-83
2024/01/12 08:42:42;;;;;;;18.58;8.10;;;;;;;;;;4990382;28;20034;-82
2024/01/12 08:45:07;;;;;;;25.77;8.95;;;;;;;;;;4986719;28;20054;-83
2024/01/12 08:47:33;;;;;;;16.67;8.63;;;;;;;;;;4983521;28;20042;-85
2024/01/12 08:49:58;;;;;;;20.17;7.90;;;;;;;;;;4967936;28;20031;-84
2024/01/12 08:52:24;;;;;;;16.60;8.35;;;;;;;;;;4980292;28;20046;-82
2024/01/12 08:54:49;;;;;;;20.80;9.48;;;;;;;;;;4987980;28;20407;-84
2024/01/12 08:57:17;;;;;;;20.15;8.57;;;;;;;;;;4966334;28;20038;-85
2024/01/12 08:59:43;;;;;;;19.73;9.00;;;;;;;;;;4988781;28;20042;-82
2024/01/12 09:02:08;;;;;;;21.60;10.07;;;;;;;;;;4984535;28;20017;-82
2024/01/12 09:04:36;;;;;;;22.52;10.07;;;;;;;;;;4978487;28;20026;-84
2024/01/12 09:07:02;;;;;;;23.95;10.68;;;;;;;;;;4979841;28;20114;-80
2024/01/12 09:09:27;;;;;;;17.13;8.50;;;;;;;;;;4977138;28;20471;-83
2024/01/12 09:11:52;;;;;;;25.33;11.15;;;;;;;;;;4966601;28;20057;-84
2024/01/12 09:14:18;;;;;;;22.92;9.90;;;;;;;;;;4965778;28;20046;-84
2024/01/12 09:16:43;;;;;;;22.90;9.98;;;;;;;;;;4975969;28;20069;-85
2024/01/12 09:19:08;;;;;;;22.67;10.43;;;;;;;;;;4978489;28;20093;-83
2024/01/12 09:21:34;;;;;;;27.00;10.63;;;;;;;;;;4965864;28;20134;-83
2024/01/12 09:23:59;;;;;;;23.02;11.05;;;;;;;;;;4980585;28;20514;-84
2024/01/12 09:26:24;;;;;;;22.20;10.20;;;;;;;;;;4978998;28;20031;-84
2024/01/12 09:28:50;;;;;;;19.50;10.25;;;;;;;;;;4949091;28;21277;-84
2024/01/12 09:31:15;;;;;;;25.92;11.55;;;;;;;;;;4990908;28;20056;-84
2024/01/12 09:33:41;;;;;;;26.88;11.50;;;;;;;;;;4985098;28;20039;-84
2024/01/12 09:36:07;;;;;;;27.48;11.65;;;;;;;;;;4967743;28;20050;-84
2024/01/12 09:38:32;;;;;;;30.38;12.10;;;;;;;;;;4982511;28;20053;-82
2024/01/12 09:40:59;;;;;;;31.95;12.02;;;;;;;;;;4962277;28;20031;-83
2024/01/12 09:43:28;;;;;;;27.02;11.43;;;;;;;;;;4989858;28;20026;-85
2024/01/12 09:45:58;;;;;;;21.30;10.43;;;;;;;;;;4971342;28;20093;-84
2024/01/12 09:48:26;;;;;;;28.13;11.43;;;;;;;;;;4965637;28;20110;-79
2024/01/12 09:50:54;;;;;;;22.73;10.00;;;;;;;;;;4969446;28;20062;-83
2024/01/12 09:53:20;;;;;;;19.48;9.15;;;;;;;;;;4966391;28;20074;-82
2024/01/12 09:55:45;;;;;;;21.65;10.00;;;;;;;;;;4964049;28;20042;-84
2024/01/12 09:58:11;;;;;;;23.40;11.35;;;;;;;;;;4992914;28;20030;-84
2024/01/12 10:00:38;;;;;;;22.30;10.60;;;;;;;;;;4988723;28;20093;-83
2024/01/12 10:03:05;;;;;;;23.45;11.75;;;;;;;;;;4982453;28;20085;-85
2024/01/12 10:05:31;;;;;;;26.77;12.10;;;;;;;;;;4979025;28;20141;-83
2024/01/12 10:07:56;;;;;;;23.38;12.35;;;;;;;;;;4968649;28;20038;-83
2024/01/12 10:10:22;;;;;;;27.77;13.88;;;;;;;;;;4966546;28;20147;-84
2024/01/12 10:12:48;;;;;;;33.08;15.43;;;;;;;;;;4990199;28;20053;-84
2024/01/12 10:15:14;;;;;;;32.35;13.27;;;;;;;;;;4980838;28;20042;-84
2024/01/12 10:17:39;;;;;;;38.10;15.05;;;;;;;;;;4978871;28;20046;-83
2024/01/12 10:20:06;;;;;;;35.03;16.05;;;;;;;;;;4962688;28;20150;-85
2024/01/12 10:22:31;;;;;;;34.88;16.38;;;;;;;;;;4961085;28;20069;-84
2024/01/12 10:25:00;;;;;;;30.77;14.55;;;;;;;;;;4968038;28;20043;-86
2024/01/12 10:27:26;;;;;;;32.97;13.85;;;;;;;;;;4965187;28;20041;-85
2024/01/12 10:29:52;;;;;;;40.13;14.13;;;;;;;;;;4988649;28;20026;-83
2024/01/12 10:32:18;;;;;;;24.73;12.50;;;;;;;;;;4980315;28;20039;-82
2024/01/12 10:34:46;;;;;;;25.05;13.07;;;;;;;;;;4963673;28;20046;-82
2024/01/12 10:37:15;;;;;;;33.35;13.68;;;;;;;;;;4983007;28;20035;-81
2024/01/12 10:39:43;;;;;;;38.15;15.73;;;;;;;;;;4981470;28;20042;-84
2024/01/12 10:42:10;;;;;;;28.15;14.02;;;;;;;;;;4983921;28;20035;-84
2024/01/12 10:44:39;;;;;;;29.73;14.35;;;;;;;;;;4981371;28;20656;-81
2024/01/12 10:47:06;;;;;;;29.40;14.07;;;;;;;;;;4970189;28;20125;-84
2024/01/12 10:49:42;;;;;;;29.98;13.65;;;;;;;;;;4989871;28;20041;-82
2024/01/12 10:52:19;;;;;;;28.55;13.60;;;;;;;;;;4966069;28;20046;-82
2024/01/12 10:54:58;;;;;;;26.20;14.18;;;;;;;;;;4984144;28;20035;-84
2024/01/12 10:57:26;;;;;;;27.02;14.52;;;;;;;;;;4973204;28;20134;-84
2024/01/12 10:59:51;;;;;;;31.88;15.57;;;;;;;;;;4975118;28;20050;-83
2024/01/12 11:02:18;;;;;;;29.83;14.73;;;;;;;;;;4959977;28;20039;-84
2024/01/12 11:04:44;;;;;;;35.38;16.85;;;;;;;;;;4961305;28;20530;-82
2024/01/12 11:07:10;;;;;;;45.88;17.30;;;;;;;;;;4985094;28;20034;-86
2024/01/12 11:09:35;;;;;;;42.28;18.73;;;;;;;;;;4977092;28;20034;-84
2024/01/12 11:12:10;;;;;;;36.67;18.27;;;;;;;;;;4983959;28;20503;-83
2024/01/12 11:14:36;;;;;;;36.88;16.38;;;;;;;;;;4989348;28;20057;-83
2024/01/12 11:17:05;;;;;;;30.45;15.32;;;;;;;;;;4985032;28;20043;-84
2024/01/12 11:19:31;;;;;;;42.33;19.13;;;;;;;;;;4973547;28;20452;-85
2024/01/12 11:22:10;;;;;;;43.55;21.20;;;;;;;;;;4983772;28;20549;-81
2024/01/12 11:24:44;;;;;;;46.20;20.13;;;;;;;;;;4987173;28;20043;-84
2024/01/12 11:27:12;;;;;;;39.83;19.30;;;;;;;;;;4967147;28;20122;-85
2024/01/12 11:29:39;;;;;;;44.30;19.58;;;;;;;;;;4982806;28;20031;-82
2024/01/12 11:32:04;;;;;;;40.42;16.73;;;;;;;;;;4984560;28;20500;-84
2024/01/12 11:34:33;;;;;;;43.05;20.58;;;;;;;;;;4974935;28;20140;-83
2024/01/12 11:36:59;;;;;;;44.97;20.77;;;;;;;;;;4970942;28;20038;-85
2024/01/12 11:39:24;;;;;;;39.80;16.25;;;;;;;;;;4985972;28;20047;-85
2024/01/12 11:41:58;;;;;;;37.03;17.88;;;;;;;;;;4980585;28;20086;-85
2024/01/12 11:44:24;;;;;;;32.13;15.18;;;;;;;;;;4986718;28;20035;-83
2024/01/12 11:46:51;;;;;;;30.05;15.73;;;;;;;;;;4972317;28;20352;-85
2024/01/12 11:49:16;;;;;;;36.58;15.02;;;;;;;;;;4973484;28;20545;-81
2024/01/12 11:51:41;;;;;;;33.25;14.98;;;;;;;;;;4993429;28;20062;-83
2024/01/12 11:54:07;;;;;;;39.50;15.40;;;;;;;;;;4991474;28;20054;-83
2024/01/12 11:56:32;;;;;;;32.72;15.43;;;;;;;;;;4971990;28;21542;-85
2024/01/12 11:58:57;;;;;;;32.25;16.35;;;;;;;;;;4979253;28;20047;-83
2024/01/12 12:01:24;;;;;;;33.50;16.00;;;;;;;;;;4973643;28;20042;-84
2024/01/12 12:03:49;;;;;;;38.22;17.73;;;;;;;;;;4991970;28;20508;-80
2024/01/12 12:06:16;;;;;;;40.38;17.95;;;;;;;;;;4989891;28;20069;-87
2024/01/12 12:08:42;;;;;;;42.90;20.20;;;;;;;;;;4990667;28;20089;-83
2024/01/12 12:11:08;;;;;;;41.30;19.58;;;;;;;;;;4973822;28;20519;-82
2024/01/12 12:13:33;;;;;;;41.20;21.50;;;;;;;;;;4968097;28;20043;-85
2024/01/12 12:15:59;;;;;;;44.08;20.90;;;;;;;;;;4966313;28;20050;-86
2024/01/12 12:18:24;;;;;;;50.55;23.02;;;;;;;;;;4981820;28;20046;-82
2024/01/12 12:20:50;;;;;;;53.95;23.77;;;;;;;;;;4983318;28;20411;-84
2024/01/12 12:23:15;;;;;;;50.58;23.55;;;;;;;;;;4968263;28;20035;-84
2024/01/12 12:25:40;;;;;;;46.85;21.77;;;;;;;;;;4986269;28;20235;-83
2024/01/12 12:28:07;;;;;;;62.28;25.88;;;;;;;;;;4946897;28;20515;-84
2024/01/12 12:30:32;;;;;;;54.80;25.63;;;;;;;;;;4967770;28;20688;-84
2024/01/12 12:32:58;;;;;;;58.03;26.38;;;;;;;;;;4986248;28;20043;-86
2024/01/12 12:35:23;;;;;;;51.30;22.63;;;;;;;;;;4966061;28;20039;-86
2024/01/12 12:37:51;;;;;;;62.20;26.23;;;;;;;;;;4988777;28;20038;-84
2024/01/12 12:40:18;;;;;;;53.72;23.95;;;;;;;;;;4981339;28;20540;-82
2024/01/12 12:42:45;;;;;;;50.45;26.42;;;;;;;;;;4965603;28;20507;-84
2024/01/12 12:45:10;;;;;;;65.75;27.20;;;;;;;;;;4989082;28;20049;-84
2024/01/12 12:47:37;;;;;;;60.33;29.27;;;;;;;;;;4978794;28;20042;-84
2024/01/12 12:50:10;;;;;;;55.90;27.17;;;;;;;;;;4987195;28;20092;-84
2024/01/12 12:52:36;;;;;;;60.63;30.75;;;;;;;;;;4991963;28;20035;-83
2024/01/12 12:55:03;;;;;;;56.53;28.27;;;;;;;;;;4985307;28;20038;-83
2024/01/12 12:57:29;;;;;;;67.18;28.70;;;;;;;;;;4986324;28;20435;-85
2024/01/12 12:59:54;;;;;;;60.15;29.27;;;;;;;;;;4976660;28;20061;-84
2024/01/12 13:02:20;;;;;;;54.78;26.10;;;;;;;;;;4982103;28;20051;-82
2024/01/12 13:04:45;;;;;;;54.53;25.55;;;;;;;;;;4976396;28;20030;-84
2024/01/12 13:07:10;;;;;;;72.60;30.25;;;;;;;;;;4966518;28;20023;-81
2024/01/12 13:09:36;;;;;;;74.57;32.40;;;;;;;;;;4990314;28;20038;-83
2024/01/12 13:12:03;;;;;;;73.22;33.08;;;;;;;;;;4987410;28;20022;-83
2024/01/12 13:14:29;;;;;;;68.03;30.42;;;;;;;;;;4995821;28;20771;-82
2024/01/12 13:16:55;;;;;;;77.53;34.17;;;;;;;;;;4989190;28;20035;-85
2024/01/12 13:19:20;;;;;;;75.82;33.60;;;;;;;;;;4996751;28;20503;-83
2024/01/12 13:21:46;;;;;;;73.55;32.63;;;;;;;;;;4996902;28;20030;-81
2024/01/12 13:24:11;;;;;;;85.22;35.75;;;;;;;;;;4989069;28;20037;-85
2024/01/12 13:26:37;;;;;;;87.85;34.80;;;;;;;;;;4993866;28;20046;-82
2024/01/12 13:29:04;;;;;;;65.70;31.05;;;;;;;;;;4990822;28;20515;-81
2024/01/12 13:31:32;;;;;;;52.70;24.83;;;;;;;;;;4953069;28;20090;-83
2024/01/12 13:33:58;;;;;;;41.33;19.55;;;;;;;;;;4991044;28;20454;-86
2024/01/12 13:36:24;;;;;;;61.20;26.90;;;;;;;;;;4993152;28;20066;-84
2024/01/12 13:38:52;;;;;;;63.80;25.90;;;;;;;;;;4983398;28;20051;-85
2024/01/12 13:41:17;;;;;;;62.30;26.17;;;;;;;;;;4981691;28;20046;-83
2024/01/12 13:43:43;;;;;;;50.40;22.75;;;;;;;;;;4988788;28;20543;-85
2024/01/12 13:46:08;;;;;;;52.90;23.92;;;;;;;;;;4960192;28;20039;-83
2024/01/12 13:48:34;;;;;;;56.10;25.98;;;;;;;;;;4983801;28;20407;-83
2024/01/12 13:51:00;;;;;;;57.28;27.40;;;;;;;;;;4983629;28;20038;-86
2024/01/12 13:53:27;;;;;;;55.83;24.55;;;;;;;;;;4944236;28;20045;-86
2024/01/12 13:55:53;;;;;;;67.13;26.80;;;;;;;;;;4977922;28;20050;-82
2024/01/12 13:58:18;;;;;;;57.20;25.98;;;;;;;;;;4965908;28;20049;-81
2024/01/12 14:00:43;;;;;;;63.30;27.90;;;;;;;;;;4985792;28;20499;-83
2024/01/12 14:03:11;;;;;;;52.95;26.60;;;;;;;;;;4969442;28;20039;-82
2024/01/12 14:05:37;;;;;;;47.67;21.52;;;;;;;;;;4974692;28;20038;-83
2024/01/12 14:08:02;;;;;;;62.50;26.40;;;;;;;;;;4976953;28;20039;-85
2024/01/12 14:10:28;;;;;;;54.85;23.40;;;;;;;;;;4976854;28;20057;-84
2024/01/12 14:12:53;;;;;;;42.92;21.30;;;;;;;;;;4973644;28;20394;-83
2024/01/12 14:15:18;;;;;;;54.95;24.30;;;;;;;;;;4980514;28;20107;-86